Flight Track Log - Related Links

Times and Time Zones

All times are in EDT time to prevent confusion due to time zone crossing. See the UAL258 flight status page for this flight to view local times or setup timezone preferences in your user account.

Time Position Orientation Groundspeed Altitude Reporting Facility
EDT Latitude Longitude Course Direction KTS MPH feet Rate Location/Type
Mon 06:05:32 AM 39.1833 -76.7167 211° Southwest 149 171 1,700  Level Potomac TRACON
Mon 06:06:26 AM 39.1833 -76.7667 270° West 189 217 3,600 2,477 Climbing Potomac TRACON
Mon 06:07:00 AM 39.2000 -77.0136 270° West  Level FlightAware Approximate
Mon 06:08:00 AM 39.2000 -77.1326 270° West  Level FlightAware Approximate
Mon 06:08:24 AM 39.2083 -76.9175 282° West 227 261 8,800  Level Washington Center
Mon 06:09:00 AM 39.1341 -77.2050 211° Southwest  Level FlightAware Approximate
Mon 06:09:24 AM 39.2114 -77.0114 272° West 246 283 11,000  Level Washington Center
Mon 06:10:00 AM 39.0552 -77.2664 211° Southwest  Level FlightAware Approximate
Mon 06:10:25 AM 39.2103 -77.1158 269° West 278 320 13,400  Level Washington Center
Mon 06:11:23 AM 39.1592 -77.1978 231° Southwest 287 330 15,900 2,269 Climbing Washington Center
Mon 06:12:24 AM 39.0997 -77.2739 225° Southwest 287 330 17,900 2,016 Climbing Washington Center
Mon 06:13:25 AM 39.0814 -77.3858 258° West 299 344 20,000 1,950 Climbing Washington Center
Mon 06:14:24 AM 39.0650 -77.5003 260° West 316 364 21,800 1,966 Climbing Washington Center
Mon 06:15:24 AM 39.0486 -77.6175 260° West 335 386 23,900 1,900 Climbing Washington Center
Mon 06:16:24 AM 39.0317 -77.7481 261° West 335 386 25,600 1,500 Climbing Washington Center
Mon 06:17:24 AM 39.0131 -77.8544 257° West 335 386 26,900 1,190 Climbing Washington Center
Mon 06:18:25 AM 38.9961 -77.9742 260° West 335 386 28,000 1,100 Climbing Washington Center
Mon 06:19:24 AM 38.9769 -78.0961 259° West 340 391 29,100 1,059 Climbing Washington Center
Mon 06:20:24 AM 38.9619 -78.2186 261° West 345 397 30,100 942 Climbing Washington Center
Mon 06:21:25 AM 38.9631 -78.3467 271° West 356 410 31,000 1,250 Climbing Washington Center
Mon 06:22:24 AM 38.9686 -78.4750 273° West 356 410 32,600 958 Climbing Washington Center
Mon 06:23:24 AM 38.9736 -78.6033 273° West 361 415 32,900 645 Climbing Washington Center
Mon 06:24:25 AM 38.9767 -78.7344 272° West 367 422 33,900 793 Climbing Washington Center
Mon 06:25:25 AM 38.9794 -78.8653 272° West 367 422 34,500 550 Climbing Washington Center
Mon 06:26:25 AM 38.9839 -79.0017 272° West 367 422 35,000 700 Climbing Washington Center
Mon 06:27:25 AM 38.9883 -79.1356 272° West 372 428 35,900 496 Climbing Washington Center
Mon 06:28:26 AM 38.9925 -79.2719 272° West 382 440 36,000 50 Climbing Washington Center
Mon 06:29:24 AM 38.9947 -79.4083 271° West 382 440 36,000 50 Level Washington Center
Mon 06:30:25 AM 38.9986 -79.5447 272° West 387 445 36,100  Climbing Washington Center
Mon 06:31:25 AM 39.0017 -79.7000 271° West 393 452 36,000 -101 Descending Washington Center
Mon 06:32:24 AM 39.0033 -79.8336 271° West 388 447 35,900  Descending Washington Center
Mon 06:34:36 AM 39.0050 -80.1131 271° West 398 458 36,000 62 Climbing Indianapolis Center
Mon 06:35:37 AM 39.0061 -80.2581 271° West 405 466 36,100 50 Climbing Indianapolis Center
Mon 06:36:37 AM 39.0228 -80.4294 277° West 404 465 36,100 -50 Level Indianapolis Center
Mon 06:37:38 AM 39.0806 -80.5572 300° West 409 471 36,000 -49 Descending Indianapolis Center
Mon 06:38:39 AM 39.1372 -80.6856 300° West 412 474 36,000  Level Indianapolis Center
Mon 06:39:40 AM 39.1928 -80.8131 299° West 410 472 36,000  Level Indianapolis Center
Mon 06:40:40 AM 39.2492 -80.9414 300° West 412 474 36,000  Level Indianapolis Center
Mon 06:41:41 AM 39.3047 -81.0692 299° West 410 472 36,000  Level Indianapolis Center
Mon 06:42:42 AM 39.3614 -81.1983 300° West 414 476 36,000  Level Indianapolis Center
Mon 06:43:43 AM 39.4161 -81.3269 299° West 411 473 36,000  Level Indianapolis Center
Mon 06:44:43 AM 39.4722 -81.4569 299° West 415 478 36,000  Level Indianapolis Center
Mon 06:45:44 AM 39.5286 -81.5878 299° West 417 480 36,000  Level Indianapolis Center
Mon 06:46:45 AM 39.5847 -81.7197 299° West 419 482 36,000  Level Indianapolis Center
Mon 06:47:46 AM 39.6408 -81.8531 299° West 421 484 36,000  Level Indianapolis Center
Mon 06:48:46 AM 39.6972 -81.9853 299° West 420 483 36,000  Level Indianapolis Center
Mon 06:49:47 AM 39.7594 -82.1342 299° West 421 484 36,000  Level Indianapolis Center
Mon 06:50:48 AM 39.8164 -82.2697 299° West 423 487 36,000  Level Indianapolis Center
Mon 06:51:49 AM 39.8725 -82.4036 299° West 420 483 36,000 -50 Level Indianapolis Center
Mon 06:52:49 AM 39.9272 -82.5356 298° West 414 476 35,900 -50 Descending Indianapolis Center
Mon 06:53:50 AM 39.9822 -82.6689 298° West 414 476 35,900  Level Indianapolis Center
Mon 06:54:51 AM 40.0361 -82.8000 298° West 410 472 35,900  Level Indianapolis Center
Mon 06:55:52 AM 40.0908 -82.9322 298° West 412 474 35,900  Level Indianapolis Center
Mon 06:56:53 AM 40.1450 -83.0661 298° West 415 478 35,900 49 Level Indianapolis Center
Mon 06:57:54 AM 40.1992 -83.1994 298° West 415 478 36,000  Climbing Indianapolis Center
Mon 06:58:55 AM 40.2531 -83.3336 298° West 416 479 35,900  Descending Indianapolis Center
Mon 06:59:55 AM 40.3067 -83.4675 298° West 416 479 36,000 50 Climbing Indianapolis Center
Mon 07:00:56 AM 40.3606 -83.6014 298° West 415 478 36,000 -49 Level Indianapolis Center
Mon 07:01:57 AM 40.4139 -83.7361 298° West 414 476 35,900 -49 Descending Indianapolis Center
Mon 07:02:58 AM 40.4686 -83.8706 298° West 415 478 35,900 -344 Level Indianapolis Center
Mon 07:03:59 AM 40.5317 -84.0300 298° West 418 481 35,200 -836 Descending Indianapolis Center
Mon 07:05:00 AM 40.5847 -84.1656 297° West 416 479 34,200 -639 Descending Indianapolis Center
Mon 07:06:01 AM 40.6381 -84.3006 298° West 413 475 33,900 -102 Descending Indianapolis Center
Mon 07:06:58 AM 40.6864 -84.4261 297° West 415 478 34,000 51 Climbing Chicago Center
Mon 07:07:59 AM 40.7394 -84.5611 297° West 415 478 34,000  Level Chicago Center
Mon 07:09:00 AM 40.7911 -84.6975 297° West 416 479 34,000  Level Chicago Center
Mon 07:10:00 AM 40.8439 -84.8333 297° West 416 479 34,000  Level Chicago Center
Mon 07:11:01 AM 40.8975 -84.9672 298° West 414 476 34,000  Level Chicago Center
Mon 07:12:02 AM 40.9539 -85.0997 299° West 413 475 34,000  Level Chicago Center
Mon 07:13:03 AM 41.0094 -85.2331 299° West 414 476 34,000 -1,033 Level Chicago Center
Mon 07:14:04 AM 41.0658 -85.3647 300° West 411 473 31,900 -2,164 Descending Chicago Center
Mon 07:15:05 AM 41.1183 -85.4917 299° West 398 458 29,600 -2,459 Descending Chicago Center
Mon 07:16:06 AM 41.1694 -85.6153 299° West 386 444 26,900 -2,262 Descending Chicago Center
Mon 07:17:07 AM 41.2181 -85.7347 298° West 373 429 25,000 -934 Descending Chicago Center
Mon 07:18:08 AM 41.2692 -85.8589 299° West 378 435 25,000  Level Chicago Center
Mon 07:19:09 AM 41.3017 -86.0000 287° West 394 453 25,000  Level Chicago Center
Mon 07:20:10 AM 41.3328 -86.1422 286° West 398 458 25,000  Level Chicago Center
Mon 07:21:12 AM 41.3708 -86.3097 287° West 394 453 25,000 -829 Level Chicago Center
Mon 07:22:13 AM 41.4047 -86.4494 288° West 393 452 23,300 -2,410 Descending Chicago Center
Mon 07:23:14 AM 41.4350 -86.5872 286° West 387 445 20,100 -2,852 Descending Chicago Center
Mon 07:24:15 AM 41.4647 -86.7194 287° West 374 430 17,500 -2,537 Descending Chicago Center
Mon 07:25:17 AM 41.4925 -86.8400 287° West 365 420 14,900 -2,537 Descending Chicago Center
Mon 07:26:18 AM 41.5200 -86.9650 286° West 355 409 12,300 -1,426 Descending Chicago Center
Mon 07:27:19 AM 41.5517 -87.1086 286° West 342 394 12,000 -212 Descending Chicago Center
Mon 07:27:43 AM 41.5667 -87.1500 296° West 344 396 12,000  Level Chicago TRACON
Mon 07:28:43 AM 41.6000 -87.2667 291° West 342 394 12,000  Level Chicago TRACON
Mon 07:29:22 AM 41.6342 -87.3297 306° West 338 389 12,000 -59 Level Chicago Center
Mon 07:30:24 AM 41.6931 -87.4258 309° West 338 389 11,900 -927 Descending Chicago Center
Mon 07:31:25 AM 41.7500 -87.5206 309° West 332 382 10,100 -927 Descending Chicago Center
Mon 07:32:27 AM 41.8069 -87.6117 310° West 324 373 10,000 -77 Descending Chicago Center
Mon 07:32:43 AM 41.8333 -87.6500 313° West 283 326 10,000 -1,024 Level Chicago TRACON
Mon 07:33:49 AM 41.8833 -87.6833 334° Northwest 255 293 8,600 -1,388 Descending Chicago TRACON
Mon 07:34:44 AM 41.9500 -87.6833 360° North 254 292 7,200 -1,527 Descending Chicago TRACON

Login

Don't have an account? Register now (free) for customized features, flight alerts, and more!